Latest Weather Observations for Gayndah

IDQ60801

Issued at 8:32 pm EST Thursday 19 January 2017 (issued every 30 minutes, with the page automatically refreshed every 10 minutes)

About weather observations | Map of weather stations | Latest weather observations for QLD | Other Formats
Station Details ID: 039066 Name: GAYNDAH AIRPORT Lat: -25.62 Lon: 151.62 Height: 110.9 m
Data from the previous 72 hours. | See also: Recent months at Gayndah
Date/Time
EST
Temp
°C
App
Temp
°C
Dew
Point
°C
Rel
Hum
%
Delta-T
°C
Wind Press
QNH
hPa
Press
MSL
hPa
Rain since
9am
mm
Dir  Spd
km/h
Gust
km/h
Spd
kts
Gust
kts
19/08:00pm 27.8 31.8 22.7 74 3.5 NNE 6 7 3 4 1009.8 1009.1 0.4
19/07:30pm 29.0 32.9 22.5 68 4.4 N 6 9 3 5 1009.5 1008.8 0.0
19/07:00pm 27.6 31.3 22.5 74 3.5 W 7 17 4 9 1009.2 1008.5 0.0
19/06:30pm 30.9 32.7 21.9 58 6.1 E 15 24 8 13 1008.9 1008.2 0.0
19/06:00pm 31.0 32.3 22.6 61 5.8 E 20 30 11 16 1008.1 1007.4 0.0
19/05:30pm 31.5 31.0 22.8 60 6.0 ENE 30 39 16 21 1006.6 1005.9 0.0
19/05:00pm 33.9 33.7 22.0 49 8.2 NE 26 37 14 20 1005.6 1004.9 0.0
19/04:30pm 35.4 35.0 20.9 42 9.8 NE 24 41 13 22 1005.1 1004.4 0.0
19/04:00pm 36.8 36.7 18.8 34 11.9 ENE 17 26 9 14 1005.1 1004.4 0.0
19/03:30pm 37.8 38.5 19.7 34 12.2 E 15 26 8 14 1005.2 1004.5 0.0
19/03:00pm 37.9 39.6 19.3 33 12.5 E 9 17 5 9 1005.8 1005.1 0.0
19/02:30pm 37.4 37.6 19.3 34 12.1 E 17 24 9 13 1006.3 1005.6 0.0
19/02:00pm 37.1 38.1 19.5 35 11.8 ENE 13 26 7 14 1006.7 1006.0 0.0
19/01:30pm 37.4 38.4 20.2 36 11.6 ENE 15 24 8 13 1007.2 1006.5 0.0
19/01:00pm 36.5 38.0 17.6 32 12.3 E 6 11 3 6 1007.8 1007.1 0.0
19/12:30pm 36.6 37.8 19.1 35 11.6 NE 11 17 6 9 1008.2 1007.5 0.0
19/12:00pm 35.3 37.5 19.6 39 10.5 S 7 13 4 7 1008.7 1008.0 0.0
19/11:30am 35.0 37.1 19.4 40 10.4 WSW 7 15 4 8 1009.1 1008.4 0.0
19/11:00am 34.6 37.3 20.6 44 9.4 WSW 7 15 4 8 1009.4 1008.7 0.0
19/10:30am 33.2 35.6 19.7 45 9.0 WSW 6 11 3 6 1009.8 1009.1 0.0
19/10:00am 33.1 35.6 19.9 45 8.8 SSW 6 11 3 6 1010.2 1009.5 0.0
19/09:30am 32.2 34.8 20.1 48 8.0 SW 6 17 3 9 1010.5 1009.8 0.0
19/09:00am 31.1 32.8 20.1 52 7.3 W 11 19 6 10 1010.1 1009.4 0.0
19/08:30am 30.5 32.2 20.1 53 6.9 WSW 11 17 6 9 1010.3 1009.6 0.0
19/08:00am 29.0 31.2 20.4 59 5.7 W 9 13 5 7 1010.6 1009.9 0.0
19/07:30am 27.0 29.9 20.6 68 4.2 SW 6 7 3 4 1010.8 1010.1 0.0
19/07:00am 25.8 30.0 21.0 75 3.2 CALM 0 2 0 1 1010.7 1010.0 0.0
19/06:30am 24.1 28.1 20.6 81 2.3 CALM 0 0 0 0 1010.6 1009.9 0.0
19/06:00am 23.4 27.6 20.9 86 1.6 CALM 0 0 0 0 1010.5 1009.8 0.0
19/05:30am 22.2 25.8 20.5 90 1.1 ESE 2 6 1 3 1010.5 1009.8 0.0
19/05:00am 22.7 26.7 20.6 88 1.4 CALM 0 2 0 1 1009.9 1009.2 0.0
19/04:30am 22.5 25.8 20.8 90 1.1 SSW 4 11 2 6 1009.8 1009.1 0.0
19/04:00am 22.9 26.8 20.4 86 1.6 CALM 0 0 0 0 1009.2 1008.5 0.0
19/03:30am 23.0 27.0 20.5 86 1.6 CALM 0 0 0 0 1009.0 1008.3 0.0
19/03:00am 23.2 27.1 20.3 84 1.9 CALM 0 0 0 0 1008.9 1008.2 0.0
19/02:30am 23.6 26.8 20.5 83 2.0 NNE 4 6 2 3 1008.8 1008.1 0.0
19/02:00am 23.9 27.4 20.4 81 2.3 E 2 6 1 3 1009.0 1008.3 0.0
19/01:30am 24.1 28.0 20.4 80 2.4 CALM 0 4 0 2 1009.1 1008.4 0.0
19/01:00am 24.4 27.5 20.3 78 2.7 E 4 7 2 4 1009.6 1008.9 0.0
19/12:30am 24.6 27.0 20.1 76 2.9 E 7 9 4 5 1009.8 1009.1 0.0
19/12:00am 25.1 26.8 20.1 74 3.3 ENE 11 15 6 8 1010.0 1009.3 0.0
 
Date/Time
EST
Temp
°C
App
Temp
°C
Dew
Point
°C
Rel
Hum
%
Delta-T
°C
Wind Press
QNH
hPa
Press
MSL
hPa
Rain since
9am
mm
Dir  Spd
km/h
Gust
km/h
Spd
kts
Gust
kts
18/11:30pm 25.3 27.8 19.9 72 3.5 ENE 6 9 3 5 1010.2 1009.5 0.0
18/11:00pm 25.9 28.2 19.8 69 4.0 ENE 7 9 4 5 1010.6 1009.9 0.0
18/10:30pm 26.7 28.6 19.8 66 4.5 ENE 9 13 5 7 1010.7 1010.0 0.0
18/10:00pm 27.2 29.1 19.8 64 4.8 ENE 9 11 5 6 1010.8 1010.1 0.0
18/09:30pm 27.8 29.9 20.1 63 5.1 ENE 9 13 5 7 1010.5 1009.8 0.0
18/09:00pm 29.1 31.0 20.5 59 5.7 NE 11 15 6 8 1010.4 1009.7 0.0
18/08:30pm 29.7 31.5 20.3 57 6.2 NE 11 15 6 8 1010.1 1009.4 0.0
18/08:00pm 30.2 32.0 17.3 46 8.2 NE 4 6 2 3 1009.6 1008.9 0.0
18/07:30pm 31.4 32.6 15.8 39 9.7 NE 4 6 2 3 1009.3 1008.6 0.0
18/07:00pm 32.8 33.6 14.9 34 11.1 NNE 4 6 2 3 1009.0 1008.3 0.0
18/06:30pm 34.2 34.2 13.6 29 12.6 NNE 6 9 3 5 1009.0 1008.3 0.0
18/06:00pm 35.7 35.0 12.0 24 14.2 NNE 7 9 4 5 1008.9 1008.2 0.0
18/05:30pm 36.1 36.1 12.3 24 14.4 NW 4 9 2 5 1008.7 1008.0 0.0
18/05:00pm 36.3 35.8 12.5 24 14.4 E 7 13 4 7 1008.9 1008.2 0.0
18/04:30pm 36.7 36.2 12.8 24 14.6 WSW 7 11 4 6 1009.0 1008.3 0.0
18/04:00pm 36.5 36.0 12.0 23 14.8 W 6 17 3 9 1009.2 1008.5 0.0
18/03:30pm 35.5 35.7 13.1 26 13.6 NW 4 11 2 6 1009.5 1008.8 0.0
18/03:00pm 36.0 36.3 14.6 27 13.4 E 6 9 3 5 1009.9 1009.2 0.0
18/02:30pm 35.2 35.5 15.0 30 12.6 N 7 11 4 6 1010.3 1009.6 0.0
18/02:00pm 35.7 36.3 15.4 29 12.8 SW 6 15 3 8 1010.9 1010.2 0.0
18/01:30pm 34.0 35.0 16.8 35 11.0 WNW 7 17 4 9 1011.5 1010.8 0.0
18/01:00pm 33.4 35.1 17.1 37 10.4 NW 4 7 2 4 1012.0 1011.3 0.0
18/12:30pm 33.5 36.1 19.2 43 9.4 NNE 4 9 2 5 1012.6 1012.0 0.0
18/12:00pm 32.3 34.1 18.8 44 8.8 WSW 7 15 4 8 1013.3 1012.7 0.0
18/11:30am 32.0 34.8 19.6 47 8.2 SSE 4 11 2 6 1013.8 1013.2 0.0
18/11:00am 30.9 32.3 18.6 48 8.0 W 9 17 5 9 1014.5 1013.8 0.0
18/10:30am 30.3 31.8 17.7 46 8.1 SW 6 9 3 5 1014.8 1014.1 0.0
18/10:00am 29.4 30.8 17.9 50 7.4 N 7 17 4 9 1015.1 1014.4 0.0
18/09:30am 28.2 30.4 18.3 55 6.3 NNW 4 11 2 6 1015.5 1014.8 0.0
18/09:00am 27.9 30.8 19.1 58 5.7 SW 2 6 1 3 1015.6 1014.9 0.0
18/08:30am 26.8 28.4 19.2 63 4.9 NW 9 15 5 8 1015.9 1015.2 0.0
18/08:00am 26.1 28.0 19.7 68 4.2 WNW 9 13 5 7 1015.9 1015.2 0.0
18/07:30am 26.3 30.2 20.4 70 3.9 CALM 0 4 0 2 1015.7 1015.0 0.0
18/07:00am 25.3 29.4 20.8 76 3.0 CALM 0 2 0 1 1015.4 1014.7 0.0
18/06:30am 24.4 28.6 20.9 81 2.3 CALM 0 0 0 0 1015.1 1014.4 0.0
18/06:00am 22.5 26.6 20.8 90 1.1 CALM 0 0 0 0 1014.9 1014.2 0.0
18/05:30am 21.3 25.1 20.1 93 0.8 CALM 0 0 0 0 1014.5 1013.8 0.0
18/05:00am 21.5 25.3 20.1 92 0.9 CALM 0 0 0 0 1013.9 1013.3 0.0
18/04:30am 21.7 25.5 20.2 91 1.0 CALM 0 0 0 0 1013.7 1013.1 0.0
18/04:00am 21.6 24.8 19.7 89 1.2 S 2 4 1 2 1013.7 1013.1 0.0
18/03:30am 22.2 25.3 20.3 89 1.2 ESE 4 6 2 3 1013.6 1013.0 0.0
18/03:00am 22.6 25.7 20.3 87 1.5 E 4 6 2 3 1013.7 1013.1 0.0
18/02:30am 22.8 25.4 20.5 87 1.5 E 7 9 4 5 1013.8 1013.2 0.0
18/02:00am 23.3 26.2 20.6 85 1.8 NE 6 7 3 4 1014.0 1013.4 0.0
18/01:30am 23.5 26.4 20.6 84 1.9 NE 6 7 3 4 1014.4 1013.7 0.0
18/01:00am 23.6 26.3 20.7 84 1.9 NE 7 9 4 5 1014.5 1013.8 0.0
18/12:30am 24.1 27.1 20.8 82 2.2 NE 6 7 3 4 1014.8 1014.1 0.0
18/12:00am 24.2 27.0 20.5 80 2.4 NE 6 9 3 5 1015.2 1014.5 0.0
 
Date/Time
EST
Temp
°C
App
Temp
°C
Dew
Point
°C
Rel
Hum
%
Delta-T
°C
Wind Press
QNH
hPa
Press
MSL
hPa
Rain since
9am
mm
Dir  Spd
km/h
Gust
km/h
Spd
kts
Gust
kts
17/11:30pm 24.4 26.9 20.3 78 2.7 NE 7 11 4 6 1015.6 1014.9 0.0
17/11:00pm 24.9 27.0 20.2 75 3.1 NE 9 13 5 7 1015.6 1014.9 0.0
17/10:30pm 25.5 27.1 19.9 71 3.6 NE 11 15 6 8 1015.8 1015.1 0.0
17/10:00pm 25.9 26.5 19.5 68 4.1 NE 15 20 8 11 1016.1 1015.4 0.0
17/09:30pm 26.3 27.8 19.7 67 4.3 NE 11 15 6 8 1016.1 1015.4 0.0
17/09:00pm 26.8 27.4 19.4 64 4.8 NE 15 20 8 11 1015.9 1015.2 0.0
17/08:30pm 27.5 27.1 19.0 59 5.5 NE 19 26 10 14 1015.4 1014.7 0.0
17/08:00pm 28.1 27.8 19.1 58 5.8 NE 19 26 10 14 1015.1 1014.4 0.0
17/07:30pm 28.8 28.6 18.6 54 6.6 NE 17 24 9 13 1014.7 1014.0 0.0
17/07:00pm 29.7 28.8 18.2 50 7.4 NNE 20 26 11 14 1014.1 1013.5 0.0
17/06:30pm 31.0 30.2 18.0 45 8.4 NNE 19 26 10 14 1013.7 1013.1 0.0
17/06:00pm 32.3 31.7 18.5 44 9.0 NNE 19 30 10 16 1013.3 1012.7 0.0
17/05:30pm 32.9 33.1 19.4 45 8.9 NNE 17 20 9 11 1012.9 1012.3 0.0
17/05:00pm 34.2 34.1 18.7 40 10.2 NE 17 22 9 12 1012.5 1011.9 0.0
17/04:30pm 34.7 35.6 16.1 33 11.8 E 6 17 3 9 1012.5 1011.9 0.0
17/04:00pm 34.7 35.0 16.1 33 11.8 SE 9 17 5 9 1012.6 1012.0 0.0
17/03:30pm 33.7 34.6 16.1 34 11.1 SE 6 13 3 7 1012.9 1012.3 0.0
17/03:00pm 34.5 34.8 15.9 33 11.8 ENE 9 17 5 9 1013.0 1012.4 0.0
17/02:30pm 34.0 34.7 15.5 33 11.6 ESE 6 15 3 8 1013.4 1012.8 0.0
17/02:00pm 34.6 35.0 17.3 35 11.2 ENE 11 19 6 10 1013.6 1013.0 0.0
17/01:30pm 33.0 33.6 16.8 38 10.3 SSE 9 17 5 9 1014.1 1013.5 0.0
17/01:00pm 33.2 33.9 17.0 38 10.4 NE 9 17 5 9 1014.5 1013.8 0.0
17/12:30pm 32.3 33.8 18.1 42 9.2 NNE 7 15 4 8 1014.9 1014.2 0.0
17/12:00pm 31.6 33.0 18.6 46 8.5 NNE 9 15 5 8 1015.5 1014.8 0.0
17/11:30am 30.9 32.4 18.9 48 7.8 NNE 9 13 5 7 1015.9 1015.2 0.0
17/11:00am 31.2 33.7 20.2 52 7.3 ESE 7 15 4 8 1016.3 1015.6 0.0
17/10:30am 29.8 33.2 20.1 56 6.4 NNE 2 6 1 3 1016.6 1015.9 0.0
17/10:00am 29.9 32.6 20.7 57 6.1 NNE 7 15 4 8 1016.9 1016.2 0.0
17/09:30am 29.1 31.1 20.0 58 6.0 E 9 20 5 11 1017.0 1016.3 0.0
17/09:00am 28.7 31.8 21.0 63 5.1 ENE 6 11 3 6 1017.2 1016.5 0.0
17/08:30am 27.6 30.5 20.7 66 4.6 ENE 6 11 3 6 1017.4 1016.7 0.0
17/08:00am 27.2 30.4 20.5 67 4.4 E 4 9 2 5 1017.2 1016.5 0.0
17/07:30am 25.9 29.1 19.8 69 4.0 NE 2 7 1 4 1017.3 1016.6 0.0
17/07:00am 24.8 27.9 19.6 73 3.4 SW 2 4 1 2 1017.0 1016.3 0.0
17/06:30am 23.6 27.0 20.9 85 1.8 SW 4 6 2 3 1016.7 1016.0 0.0
17/06:00am 22.1 24.9 20.4 90 1.1 W 6 7 3 4 1016.4 1015.7 0.0
17/05:30am 21.0 24.0 20.0 94 0.6 WSW 4 4 2 2 1016.2 1015.5 0.0
17/05:00am 21.1 24.8 19.9 93 0.8 CALM 0 0 0 0 1015.8 1015.1 0.0
17/04:30am 21.2 24.2 20.0 93 0.8 S 4 6 2 3 1015.6 1014.9 0.0
17/04:00am 21.5 24.8 20.0 91 1.0 SSE 2 4 1 2 1015.3 1014.6 0.0
17/03:30am 21.9 25.7 20.2 90 1.1 CALM 0 4 0 2 1015.2 1014.5 0.0
17/03:00am 21.9 25.7 20.2 90 1.1 CALM 0 0 0 0 1015.1 1014.4 0.0
17/02:30am 22.4 26.3 20.3 88 1.4 CALM 0 4 0 2 1015.1 1014.4 0.0
17/02:00am 22.9 26.1 20.6 87 1.5 SE 4 4 2 2 1015.2 1014.5 0.0
17/01:30am 23.2 27.3 20.7 86 1.6 CALM 0 0 0 0 1015.4 1014.7 0.0
17/01:00am 23.4 26.3 20.7 85 1.8 ENE 6 6 3 3 1015.6 1014.9 0.0
17/12:30am 23.8 26.5 20.7 83 2.0 E 7 9 4 5 1015.6 1014.9 0.0
17/12:00am 24.4 26.5 20.9 81 2.3 ENE 11 13 6 7 1015.7 1015.0 0.0
 
Date/Time
EST
Temp
°C
App
Temp
°C
Dew
Point
°C
Rel
Hum
%
Delta-T
°C
Wind Press
QNH
hPa
Press
MSL
hPa
Rain since
9am
mm
Dir  Spd
km/h
Gust
km/h
Spd
kts
Gust
kts
16/11:30pm 24.5 26.0 20.6 79 2.6 ENE 13 15 7 8 1015.9 1015.2 0.0
16/11:00pm 25.0 26.1 20.5 76 2.9 ENE 15 20 8 11 1016.0 1015.3 0.0
16/10:30pm 25.5 25.7 20.1 72 3.5 ENE 19 24 10 13 1016.0 1015.3 0.0
16/10:00pm 26.2 26.3 20.3 70 3.9 ENE 20 28 11 15 1015.8 1015.1 0.0
16/09:30pm 26.4 28.1 20.9 72 3.6 ENE 13 20 7 11 1015.8 1015.1 0.0
16/09:00pm 26.9 28.3 21.0 70 3.9 NE 15 19 8 10 1015.5 1014.8 0.0

Other Formats:

Comma delimited format used in spreadsheet applications
http://www.bom.gov.au/fwo/IDQ60801/IDQ60801.95543.axf

JavaScript Object Notation format (JSON) in row-major order
http://www.bom.gov.au/fwo/IDQ60801/IDQ60801.95543.json